sensor_id;sensor_type;location;lat;lon;timestamp;temperature;humidity
4964;DHT22;2497;47.410;9.740;2023-08-07T00:01:14;13.70;99.90
4964;DHT22;2497;47.410;9.740;2023-08-07T00:03:41;13.80;99.90
4964;DHT22;2497;47.410;9.740;2023-08-07T00:06:08;13.70;99.90
4964;DHT22;2497;47.410;9.740;2023-08-07T00:08:35;13.70;99.90
4964;DHT22;2497;47.410;9.740;2023-08-07T00:11:07;13.80;99.90
4964;DHT22;2497;47.410;9.740;2023-08-07T00:13:34;13.90;99.90
4964;DHT22;2497;47.410;9.740;2023-08-07T00:16:03;13.70;99.90
4964;DHT22;2497;47.410;9.740;2023-08-07T00:18:33;13.70;99.90
4964;DHT22;2497;47.410;9.740;2023-08-07T00:21:00;13.60;99.90
4964;DHT22;2497;47.410;9.740;2023-08-07T00:23:28;13.50;99.90
4964;DHT22;2497;47.410;9.740;2023-08-07T00:25:57;13.30;99.90
4964;DHT22;2497;47.410;9.740;2023-08-07T00:28:24;13.20;99.90
4964;DHT22;2497;47.410;9.740;2023-08-07T00:30:51;13.00;99.90
4964;DHT22;2497;47.410;9.740;2023-08-07T00:33:20;13.10;99.90
4964;DHT22;2497;47.410;9.740;2023-08-07T00:35:47;13.20;99.90
4964;DHT22;2497;47.410;9.740;2023-08-07T00:38:14;13.30;99.90
4964;DHT22;2497;47.410;9.740;2023-08-07T00:40:41;13.30;99.90
4964;DHT22;2497;47.410;9.740;2023-08-07T00:43:08;13.20;99.90
4964;DHT22;2497;47.410;9.740;2023-08-07T00:45:40;13.00;99.90
4964;DHT22;2497;47.410;9.740;2023-08-07T00:48:08;13.10;99.90
4964;DHT22;2497;47.410;9.740;2023-08-07T00:50:37;13.00;99.90
4964;DHT22;2497;47.410;9.740;2023-08-07T00:53:05;12.90;99.90
4964;DHT22;2497;47.410;9.740;2023-08-07T00:55:32;12.80;99.90
4964;DHT22;2497;47.410;9.740;2023-08-07T00:57:59;12.90;99.90
4964;DHT22;2497;47.410;9.740;2023-08-07T01:00:27;13.00;99.90
4964;DHT22;2497;47.410;9.740;2023-08-07T01:02:56;12.90;99.90
4964;DHT22;2497;47.410;9.740;2023-08-07T01:05:24;12.80;99.90
4964;DHT22;2497;47.410;9.740;2023-08-07T01:07:54;12.70;99.90
4964;DHT22;2497;47.410;9.740;2023-08-07T01:10:35;12.70;99.90
4964;DHT22;2497;47.410;9.740;2023-08-07T01:13:14;12.60;99.90
4964;DHT22;2497;47.410;9.740;2023-08-07T01:15:43;12.60;99.90
4964;DHT22;2497;47.410;9.740;2023-08-07T01:18:11;12.50;99.90
4964;DHT22;2497;47.410;9.740;2023-08-07T01:20:41;12.50;99.90
4964;DHT22;2497;47.410;9.740;2023-08-07T01:23:10;12.50;99.90
4964;DHT22;2497;47.410;9.740;2023-08-07T01:25:37;12.50;99.90
4964;DHT22;2497;47.410;9.740;2023-08-07T01:28:12;12.50;99.90
4964;DHT22;2497;47.410;9.740;2023-08-07T01:30:46;12.50;99.90
4964;DHT22;2497;47.410;9.740;2023-08-07T01:33:22;12.50;99.90
4964;DHT22;2497;47.410;9.740;2023-08-07T01:35:53;12.50;99.90
4964;DHT22;2497;47.410;9.740;2023-08-07T01:38:25;12.50;99.90
4964;DHT22;2497;47.410;9.740;2023-08-07T01:40:52;12.50;99.90
4964;DHT22;2497;47.410;9.740;2023-08-07T01:43:20;12.60;99.90
4964;DHT22;2497;47.410;9.740;2023-08-07T01:45:47;12.60;99.90
4964;DHT22;2497;47.410;9.740;2023-08-07T01:48:14;12.70;99.90
4964;DHT22;2497;47.410;9.740;2023-08-07T01:50:41;12.70;99.90
4964;DHT22;2497;47.410;9.740;2023-08-07T01:53:08;12.70;99.90
4964;DHT22;2497;47.410;9.740;2023-08-07T01:55:37;12.60;99.90
4964;DHT22;2497;47.410;9.740;2023-08-07T01:58:04;12.70;99.90
4964;DHT22;2497;47.410;9.740;2023-08-07T02:00:31;12.80;99.90
4964;DHT22;2497;47.410;9.740;2023-08-07T02:02:58;12.90;99.90
4964;DHT22;2497;47.410;9.740;2023-08-07T02:05:25;12.90;99.90
4964;DHT22;2497;47.410;9.740;2023-08-07T02:07:52;13.00;99.90
4964;DHT22;2497;47.410;9.740;2023-08-07T02:10:22;13.20;99.90
4964;DHT22;2497;47.410;9.740;2023-08-07T02:12:51;13.30;99.90
4964;DHT22;2497;47.410;9.740;2023-08-07T02:15:18;13.30;99.90
4964;DHT22;2497;47.410;9.740;2023-08-07T02:17:45;13.40;99.90
4964;DHT22;2497;47.410;9.740;2023-08-07T02:20:12;13.50;99.90
4964;DHT22;2497;47.410;9.740;2023-08-07T02:22:39;13.40;99.90
4964;DHT22;2497;47.410;9.740;2023-08-07T02:25:07;13.40;99.90
4964;DHT22;2497;47.410;9.740;2023-08-07T02:27:34;13.40;99.90
4964;DHT22;2497;47.410;9.740;2023-08-07T02:30:04;13.50;99.90
4964;DHT22;2497;47.410;9.740;2023-08-07T02:32:32;13.40;99.90
4964;DHT22;2497;47.410;9.740;2023-08-07T02:35:01;13.40;99.90
4964;DHT22;2497;47.410;9.740;2023-08-07T02:37:28;13.40;99.90
4964;DHT22;2497;47.410;9.740;2023-08-07T02:39:55;13.30;99.90
4964;DHT22;2497;47.410;9.740;2023-08-07T02:42:25;13.40;99.90
4964;DHT22;2497;47.410;9.740;2023-08-07T02:44:52;13.40;99.90
4964;DHT22;2497;47.410;9.740;2023-08-07T02:47:20;13.40;99.90
4964;DHT22;2497;47.410;9.740;2023-08-07T02:49:47;13.50;99.90
4964;DHT22;2497;47.410;9.740;2023-08-07T02:52:15;13.50;99.90
4964;DHT22;2497;47.410;9.740;2023-08-07T02:54:42;13.50;99.90
4964;DHT22;2497;47.410;9.740;2023-08-07T02:57:09;13.50;99.90
4964;DHT22;2497;47.410;9.740;2023-08-07T02:59:36;13.40;99.90
4964;DHT22;2497;47.410;9.740;2023-08-07T03:02:03;13.30;99.90
4964;DHT22;2497;47.410;9.740;2023-08-07T03:04:32;13.30;99.90
4964;DHT22;2497;47.410;9.740;2023-08-07T03:07:00;13.40;99.90
4964;DHT22;2497;47.410;9.740;2023-08-07T03:09:27;13.40;99.90
4964;DHT22;2497;47.410;9.740;2023-08-07T03:11:54;13.30;99.90
4964;DHT22;2497;47.410;9.740;2023-08-07T03:14:21;13.40;99.90
4964;DHT22;2497;47.410;9.740;2023-08-07T03:16:48;13.30;99.90
4964;DHT22;2497;47.410;9.740;2023-08-07T03:19:15;13.20;99.90
4964;DHT22;2497;47.410;9.740;2023-08-07T03:21:44;13.20;99.90
4964;DHT22;2497;47.410;9.740;2023-08-07T03:24:11;13.20;99.90
4964;DHT22;2497;47.410;9.740;2023-08-07T03:26:38;13.20;99.90
4964;DHT22;2497;47.410;9.740;2023-08-07T03:29:06;13.20;99.90
4964;DHT22;2497;47.410;9.740;2023-08-07T03:31:33;13.10;99.90
4964;DHT22;2497;47.410;9.740;2023-08-07T03:34:00;13.10;99.90
4964;DHT22;2497;47.410;9.740;2023-08-07T03:36:27;13.10;99.90
4964;DHT22;2497;47.410;9.740;2023-08-07T03:38:56;13.10;99.90
4964;DHT22;2497;47.410;9.740;2023-08-07T03:41:23;13.10;99.90
4964;DHT22;2497;47.410;9.740;2023-08-07T03:43:50;13.20;99.90
4964;DHT22;2497;47.410;9.740;2023-08-07T03:46:17;13.30;99.90
4964;DHT22;2497;47.410;9.740;2023-08-07T03:48:46;13.20;99.90
4964;DHT22;2497;47.410;9.740;2023-08-07T03:51:17;13.20;99.90
4964;DHT22;2497;47.410;9.740;2023-08-07T03:53:44;13.20;99.90
4964;DHT22;2497;47.410;9.740;2023-08-07T03:56:13;13.20;99.90
4964;DHT22;2497;47.410;9.740;2023-08-07T03:58:40;13.20;99.90
4964;DHT22;2497;47.410;9.740;2023-08-07T04:01:08;13.30;99.90
4964;DHT22;2497;47.410;9.740;2023-08-07T04:03:36;13.30;99.90
4964;DHT22;2497;47.410;9.740;2023-08-07T04:06:04;13.20;99.90
4964;DHT22;2497;47.410;9.740;2023-08-07T04:08:31;13.20;99.90
4964;DHT22;2497;47.410;9.740;2023-08-07T04:10:59;13.10;99.90
4964;DHT22;2497;47.410;9.740;2023-08-07T04:13:29;13.10;99.90
4964;DHT22;2497;47.410;9.740;2023-08-07T04:15:56;13.10;99.90
4964;DHT22;2497;47.410;9.740;2023-08-07T04:18:24;13.10;99.90
4964;DHT22;2497;47.410;9.740;2023-08-07T04:20:52;13.00;99.90
4964;DHT22;2497;47.410;9.740;2023-08-07T04:23:19;13.00;99.90
4964;DHT22;2497;47.410;9.740;2023-08-07T04:25:49;13.10;99.90
4964;DHT22;2497;47.410;9.740;2023-08-07T04:28:18;13.10;99.90
4964;DHT22;2497;47.410;9.740;2023-08-07T04:30:49;13.00;99.90
4964;DHT22;2497;47.410;9.740;2023-08-07T04:33:16;13.00;99.90
4964;DHT22;2497;47.410;9.740;2023-08-07T04:35:43;13.00;99.90
4964;DHT22;2497;47.410;9.740;2023-08-07T04:38:12;13.00;99.90
4964;DHT22;2497;47.410;9.740;2023-08-07T04:40:56;12.90;99.90
4964;DHT22;2497;47.410;9.740;2023-08-07T04:43:25;12.80;99.90
4964;DHT22;2497;47.410;9.740;2023-08-07T04:46:01;12.80;99.90
4964;DHT22;2497;47.410;9.740;2023-08-07T04:48:32;12.80;99.90
4964;DHT22;2497;47.410;9.740;2023-08-07T04:51:07;12.90;99.90
4964;DHT22;2497;47.410;9.740;2023-08-07T04:53:35;13.00;99.90
4964;DHT22;2497;47.410;9.740;2023-08-07T04:56:19;13.10;99.90
4964;DHT22;2497;47.410;9.740;2023-08-07T04:58:46;13.10;99.90
4964;DHT22;2497;47.410;9.740;2023-08-07T05:01:15;13.10;99.90
4964;DHT22;2497;47.410;9.740;2023-08-07T05:03:42;13.10;99.90
4964;DHT22;2497;47.410;9.740;2023-08-07T05:06:12;13.00;99.90
4964;DHT22;2497;47.410;9.740;2023-08-07T05:08:39;13.00;99.90
4964;DHT22;2497;47.410;9.740;2023-08-07T05:11:06;13.00;99.90
4964;DHT22;2497;47.410;9.740;2023-08-07T05:13:33;13.00;99.90
4964;DHT22;2497;47.410;9.740;2023-08-07T05:16:00;13.10;99.90
4964;DHT22;2497;47.410;9.740;2023-08-07T05:18:29;13.10;99.90
4964;DHT22;2497;47.410;9.740;2023-08-07T05:20:56;13.20;99.90
4964;DHT22;2497;47.410;9.740;2023-08-07T05:23:23;13.20;99.90
4964;DHT22;2497;47.410;9.740;2023-08-07T05:28:20;13.20;99.90
4964;DHT22;2497;47.410;9.740;2023-08-07T05:30:48;13.20;99.90
4964;DHT22;2497;47.410;9.740;2023-08-07T05:33:15;13.20;99.90
4964;DHT22;2497;47.410;9.740;2023-08-07T05:35:44;13.20;99.90
4964;DHT22;2497;47.410;9.740;2023-08-07T05:38:11;13.10;99.90
4964;DHT22;2497;47.410;9.740;2023-08-07T05:40:38;13.10;99.90
4964;DHT22;2497;47.410;9.740;2023-08-07T05:43:06;13.10;99.90
4964;DHT22;2497;47.410;9.740;2023-08-07T05:45:34;13.00;99.90
4964;DHT22;2497;47.410;9.740;2023-08-07T05:48:01;13.00;99.90
4964;DHT22;2497;47.410;9.740;2023-08-07T05:50:28;13.10;99.90
4964;DHT22;2497;47.410;9.740;2023-08-07T05:52:56;13.10;99.90
4964;DHT22;2497;47.410;9.740;2023-08-07T05:55:23;13.10;99.90
4964;DHT22;2497;47.410;9.740;2023-08-07T05:57:51;13.10;99.90
4964;DHT22;2497;47.410;9.740;2023-08-07T06:00:19;13.10;99.90
4964;DHT22;2497;47.410;9.740;2023-08-07T06:02:53;13.10;99.90
4964;DHT22;2497;47.410;9.740;2023-08-07T06:05:24;13.10;99.90
4964;DHT22;2497;47.410;9.740;2023-08-07T06:07:51;13.00;99.90
4964;DHT22;2497;47.410;9.740;2023-08-07T06:10:20;13.00;99.90
4964;DHT22;2497;47.410;9.740;2023-08-07T06:12:47;13.00;99.90
4964;DHT22;2497;47.410;9.740;2023-08-07T06:15:14;13.00;99.90
4964;DHT22;2497;47.410;9.740;2023-08-07T06:17:44;13.00;99.90
4964;DHT22;2497;47.410;9.740;2023-08-07T06:20:13;12.90;99.90
4964;DHT22;2497;47.410;9.740;2023-08-07T06:25:18;12.50;99.90
4964;DHT22;2497;47.410;9.740;2023-08-07T06:27:46;12.20;99.90
4964;DHT22;2497;47.410;9.740;2023-08-07T06:30:13;12.10;99.90
4964;DHT22;2497;47.410;9.740;2023-08-07T06:32:40;12.00;99.90
4964;DHT22;2497;47.410;9.740;2023-08-07T06:35:08;12.00;99.90
4964;DHT22;2497;47.410;9.740;2023-08-07T06:37:35;11.90;99.90
4964;DHT22;2497;47.410;9.740;2023-08-07T06:40:03;11.90;99.90
4964;DHT22;2497;47.410;9.740;2023-08-07T06:42:32;11.80;99.90
4964;DHT22;2497;47.410;9.740;2023-08-07T06:45:02;11.80;99.90
4964;DHT22;2497;47.410;9.740;2023-08-07T06:47:29;11.80;99.90
4964;DHT22;2497;47.410;9.740;2023-08-07T06:49:56;11.90;99.90
4964;DHT22;2497;47.410;9.740;2023-08-07T06:52:23;11.90;99.90
4964;DHT22;2497;47.410;9.740;2023-08-07T06:54:51;11.90;99.90
4964;DHT22;2497;47.410;9.740;2023-08-07T06:57:18;11.90;99.90
4964;DHT22;2497;47.410;9.740;2023-08-07T06:59:46;11.90;99.90
4964;DHT22;2497;47.410;9.740;2023-08-07T07:02:13;11.80;99.90
4964;DHT22;2497;47.410;9.740;2023-08-07T07:04:40;11.90;99.90
4964;DHT22;2497;47.410;9.740;2023-08-07T07:07:07;11.80;99.90
4964;DHT22;2497;47.410;9.740;2023-08-07T07:09:34;11.90;99.90
4964;DHT22;2497;47.410;9.740;2023-08-07T07:12:01;11.90;99.90
4964;DHT22;2497;47.410;9.740;2023-08-07T07:14:29;11.90;99.90
4964;DHT22;2497;47.410;9.740;2023-08-07T07:16:57;11.90;99.90
4964;DHT22;2497;47.410;9.740;2023-08-07T07:19:24;12.00;99.90
4964;DHT22;2497;47.410;9.740;2023-08-07T07:21:53;12.00;99.90
4964;DHT22;2497;47.410;9.740;2023-08-07T07:24:21;12.00;99.90
4964;DHT22;2497;47.410;9.740;2023-08-07T07:26:48;12.00;99.90
4964;DHT22;2497;47.410;9.740;2023-08-07T07:29:16;12.00;99.90
4964;DHT22;2497;47.410;9.740;2023-08-07T07:31:43;12.00;99.90
4964;DHT22;2497;47.410;9.740;2023-08-07T07:34:12;12.00;99.90
4964;DHT22;2497;47.410;9.740;2023-08-07T07:36:40;12.10;99.90
4964;DHT22;2497;47.410;9.740;2023-08-07T07:39:07;12.20;99.90
4964;DHT22;2497;47.410;9.740;2023-08-07T07:41:35;12.20;99.90
4964;DHT22;2497;47.410;9.740;2023-08-07T07:44:02;12.20;99.90
4964;DHT22;2497;47.410;9.740;2023-08-07T07:46:29;12.20;99.90
4964;DHT22;2497;47.410;9.740;2023-08-07T07:48:57;12.30;99.90
4964;DHT22;2497;47.410;9.740;2023-08-07T07:51:25;12.30;99.90
4964;DHT22;2497;47.410;9.740;2023-08-07T07:53:54;12.40;99.90
4964;DHT22;2497;47.410;9.740;2023-08-07T07:56:21;12.40;99.90
4964;DHT22;2497;47.410;9.740;2023-08-07T07:58:48;12.50;99.90
4964;DHT22;2497;47.410;9.740;2023-08-07T08:01:16;12.50;99.90
4964;DHT22;2497;47.410;9.740;2023-08-07T08:03:45;12.60;99.90
4964;DHT22;2497;47.410;9.740;2023-08-07T08:06:14;12.70;99.90
4964;DHT22;2497;47.410;9.740;2023-08-07T08:08:43;12.70;99.90
4964;DHT22;2497;47.410;9.740;2023-08-07T08:11:10;12.70;99.90
4964;DHT22;2497;47.410;9.740;2023-08-07T08:13:37;12.70;99.90
4964;DHT22;2497;47.410;9.740;2023-08-07T08:16:06;12.80;99.90
4964;DHT22;2497;47.410;9.740;2023-08-07T08:18:33;12.90;99.90
4964;DHT22;2497;47.410;9.740;2023-08-07T08:21:00;12.90;99.90
4964;DHT22;2497;47.410;9.740;2023-08-07T08:23:27;12.90;99.90
4964;DHT22;2497;47.410;9.740;2023-08-07T08:25:56;12.90;99.90
4964;DHT22;2497;47.410;9.740;2023-08-07T08:28:23;12.90;99.90
4964;DHT22;2497;47.410;9.740;2023-08-07T08:30:50;12.90;99.90
4964;DHT22;2497;47.410;9.740;2023-08-07T08:33:18;13.00;99.90
4964;DHT22;2497;47.410;9.740;2023-08-07T08:35:45;13.00;99.90
4964;DHT22;2497;47.410;9.740;2023-08-07T08:38:12;13.00;99.90
4964;DHT22;2497;47.410;9.740;2023-08-07T08:40:39;13.00;99.90
4964;DHT22;2497;47.410;9.740;2023-08-07T08:43:08;13.00;99.90
4964;DHT22;2497;47.410;9.740;2023-08-07T08:45:37;13.00;99.90
4964;DHT22;2497;47.410;9.740;2023-08-07T08:48:05;13.10;99.90
4964;DHT22;2497;47.410;9.740;2023-08-07T08:50:34;13.00;99.90
4964;DHT22;2497;47.410;9.740;2023-08-07T08:53:03;13.10;99.90
4964;DHT22;2497;47.410;9.740;2023-08-07T08:55:31;13.20;99.90
4964;DHT22;2497;47.410;9.740;2023-08-07T08:57:59;13.30;99.90
4964;DHT22;2497;47.410;9.740;2023-08-07T09:00:29;13.40;99.90
4964;DHT22;2497;47.410;9.740;2023-08-07T09:02:57;13.40;99.90
4964;DHT22;2497;47.410;9.740;2023-08-07T09:05:24;13.40;99.90
4964;DHT22;2497;47.410;9.740;2023-08-07T09:07:51;13.60;99.90
4964;DHT22;2497;47.410;9.740;2023-08-07T09:10:18;13.70;99.90
4964;DHT22;2497;47.410;9.740;2023-08-07T09:13:02;13.70;99.90
4964;DHT22;2497;47.410;9.740;2023-08-07T09:15:32;13.70;99.90
4964;DHT22;2497;47.410;9.740;2023-08-07T09:18:02;13.70;99.90
4964;DHT22;2497;47.410;9.740;2023-08-07T09:20:33;13.80;99.90
4964;DHT22;2497;47.410;9.740;2023-08-07T09:23:00;13.90;99.90
4964;DHT22;2497;47.410;9.740;2023-08-07T09:25:27;14.10;99.90
4964;DHT22;2497;47.410;9.740;2023-08-07T09:28:00;14.20;99.90
4964;DHT22;2497;47.410;9.740;2023-08-07T09:30:32;14.30;99.90
4964;DHT22;2497;47.410;9.740;2023-08-07T09:33:01;14.50;99.90
4964;DHT22;2497;47.410;9.740;2023-08-07T09:35:29;14.50;99.90
4964;DHT22;2497;47.410;9.740;2023-08-07T09:37:57;14.40;99.90
4964;DHT22;2497;47.410;9.740;2023-08-07T09:40:24;14.50;99.90
4964;DHT22;2497;47.410;9.740;2023-08-07T09:42:52;14.50;99.90
4964;DHT22;2497;47.410;9.740;2023-08-07T09:45:20;14.80;99.90
4964;DHT22;2497;47.410;9.740;2023-08-07T09:47:58;15.40;99.90
4964;DHT22;2497;47.410;9.740;2023-08-07T09:50:26;15.80;99.90
4964;DHT22;2497;47.410;9.740;2023-08-07T09:52:54;16.20;99.90
4964;DHT22;2497;47.410;9.740;2023-08-07T09:55:22;16.10;99.90
4964;DHT22;2497;47.410;9.740;2023-08-07T09:57:49;16.30;99.90
4964;DHT22;2497;47.410;9.740;2023-08-07T10:00:18;16.40;99.90
4964;DHT22;2497;47.410;9.740;2023-08-07T10:02:50;16.80;99.90
4964;DHT22;2497;47.410;9.740;2023-08-07T10:05:21;17.00;99.90
4964;DHT22;2497;47.410;9.740;2023-08-07T10:07:48;16.50;99.90
4964;DHT22;2497;47.410;9.740;2023-08-07T10:10:17;16.30;99.90
4964;DHT22;2497;47.410;9.740;2023-08-07T10:12:45;16.20;99.90
4964;DHT22;2497;47.410;9.740;2023-08-07T10:15:17;16.00;99.90
4964;DHT22;2497;47.410;9.740;2023-08-07T10:17:45;15.80;99.90
4964;DHT22;2497;47.410;9.740;2023-08-07T10:20:12;15.60;99.90
4964;DHT22;2497;47.410;9.740;2023-08-07T10:22:44;15.60;99.90
4964;DHT22;2497;47.410;9.740;2023-08-07T10:25:11;15.60;99.90
4964;DHT22;2497;47.410;9.740;2023-08-07T10:27:40;15.50;99.90
4964;DHT22;2497;47.410;9.740;2023-08-07T10:30:11;15.40;99.90
4964;DHT22;2497;47.410;9.740;2023-08-07T10:32:40;15.40;99.90
4964;DHT22;2497;47.410;9.740;2023-08-07T10:35:08;15.30;99.90
4964;DHT22;2497;47.410;9.740;2023-08-07T10:37:45;15.50;99.90
4964;DHT22;2497;47.410;9.740;2023-08-07T10:40:13;15.60;99.90
4964;DHT22;2497;47.410;9.740;2023-08-07T10:42:56;15.70;99.90
4964;DHT22;2497;47.410;9.740;2023-08-07T10:45:24;15.70;99.90
4964;DHT22;2497;47.410;9.740;2023-08-07T10:48:02;15.70;99.90
4964;DHT22;2497;47.410;9.740;2023-08-07T10:50:30;15.90;99.90
4964;DHT22;2497;47.410;9.740;2023-08-07T10:53:01;15.80;99.90
4964;DHT22;2497;47.410;9.740;2023-08-07T10:55:32;15.70;99.90
4964;DHT22;2497;47.410;9.740;2023-08-07T10:58:21;15.80;99.90
4964;DHT22;2497;47.410;9.740;2023-08-07T11:00:50;15.70;99.90
4964;DHT22;2497;47.410;9.740;2023-08-07T11:03:26;15.80;99.90
4964;DHT22;2497;47.410;9.740;2023-08-07T11:05:57;15.90;99.90
4964;DHT22;2497;47.410;9.740;2023-08-07T11:08:26;15.80;99.90
4964;DHT22;2497;47.410;9.740;2023-08-07T11:10:56;15.80;99.90
4964;DHT22;2497;47.410;9.740;2023-08-07T11:13:25;15.90;99.90
4964;DHT22;2497;47.410;9.740;2023-08-07T11:15:55;15.70;99.90
4964;DHT22;2497;47.410;9.740;2023-08-07T11:18:23;15.60;99.90
4964;DHT22;2497;47.410;9.740;2023-08-07T11:20:50;15.60;99.90
4964;DHT22;2497;47.410;9.740;2023-08-07T11:23:23;15.90;99.90
4964;DHT22;2497;47.410;9.740;2023-08-07T11:25:54;16.10;99.90
4964;DHT22;2497;47.410;9.740;2023-08-07T11:28:23;16.10;99.90
4964;DHT22;2497;47.410;9.740;2023-08-07T11:30:51;16.00;99.90
4964;DHT22;2497;47.410;9.740;2023-08-07T11:33:22;15.80;99.90
4964;DHT22;2497;47.410;9.740;2023-08-07T11:35:50;15.90;99.90
4964;DHT22;2497;47.410;9.740;2023-08-07T11:38:30;15.80;99.90
4964;DHT22;2497;47.410;9.740;2023-08-07T11:41:00;15.70;99.90
4964;DHT22;2497;47.410;9.740;2023-08-07T11:43:28;15.70;99.90
4964;DHT22;2497;47.410;9.740;2023-08-07T11:45:57;15.50;99.90
4964;DHT22;2497;47.410;9.740;2023-08-07T11:54:05;14.20;99.90
4964;DHT22;2497;47.410;9.740;2023-08-07T11:56:36;13.80;99.90
4964;DHT22;2497;47.410;9.740;2023-08-07T11:59:09;13.60;99.90
4964;DHT22;2497;47.410;9.740;2023-08-07T12:01:39;13.20;99.90
4964;DHT22;2497;47.410;9.740;2023-08-07T12:04:11;12.90;99.90
4964;DHT22;2497;47.410;9.740;2023-08-07T12:06:51;12.70;99.90
4964;DHT22;2497;47.410;9.740;2023-08-07T12:09:19;12.60;99.90
4964;DHT22;2497;47.410;9.740;2023-08-07T12:11:48;12.50;99.90
4964;DHT22;2497;47.410;9.740;2023-08-07T12:14:16;12.50;99.90
4964;DHT22;2497;47.410;9.740;2023-08-07T12:16:44;12.50;99.90
4964;DHT22;2497;47.410;9.740;2023-08-07T12:19:12;12.30;99.90
4964;DHT22;2497;47.410;9.740;2023-08-07T12:21:40;12.00;99.90
4964;DHT22;2497;47.410;9.740;2023-08-07T12:24:07;11.90;99.90
4964;DHT22;2497;47.410;9.740;2023-08-07T12:26:35;11.80;99.90
4964;DHT22;2497;47.410;9.740;2023-08-07T12:39:28;11.60;99.90
4964;DHT22;2497;47.410;9.740;2023-08-07T12:42:16;11.60;99.90
4964;DHT22;2497;47.410;9.740;2023-08-07T12:47:58;11.40;99.90
4964;DHT22;2497;47.410;9.740;2023-08-07T12:50:25;11.40;99.90
4964;DHT22;2497;47.410;9.740;2023-08-07T12:52:52;11.60;99.90
4964;DHT22;2497;47.410;9.740;2023-08-07T12:55:29;12.00;99.90
4964;DHT22;2497;47.410;9.740;2023-08-07T12:57:58;12.60;99.90
4964;DHT22;2497;47.410;9.740;2023-08-07T13:00:25;12.80;99.90
4964;DHT22;2497;47.410;9.740;2023-08-07T13:02:53;12.90;99.90
4964;DHT22;2497;47.410;9.740;2023-08-07T13:05:21;13.40;99.90
4964;DHT22;2497;47.410;9.740;2023-08-07T13:07:48;13.70;99.90
4964;DHT22;2497;47.410;9.740;2023-08-07T13:10:18;14.10;99.90
4964;DHT22;2497;47.410;9.740;2023-08-07T13:12:47;14.40;99.90
4964;DHT22;2497;47.410;9.740;2023-08-07T13:15:16;14.30;99.90
4964;DHT22;2497;47.410;9.740;2023-08-07T13:17:47;14.10;99.90
4964;DHT22;2497;47.410;9.740;2023-08-07T13:20:14;14.00;99.90
4964;DHT22;2497;47.410;9.740;2023-08-07T13:22:42;13.80;99.90
4964;DHT22;2497;47.410;9.740;2023-08-07T13:25:09;13.90;99.90
4964;DHT22;2497;47.410;9.740;2023-08-07T13:27:38;14.00;99.90
4964;DHT22;2497;47.410;9.740;2023-08-07T13:30:08;14.40;99.90
4964;DHT22;2497;47.410;9.740;2023-08-07T13:32:35;14.80;99.90
4964;DHT22;2497;47.410;9.740;2023-08-07T13:35:03;15.00;99.90
4964;DHT22;2497;47.410;9.740;2023-08-07T13:37:30;15.00;99.90
4964;DHT22;2497;47.410;9.740;2023-08-07T13:39:59;14.80;99.90
4964;DHT22;2497;47.410;9.740;2023-08-07T13:42:26;14.70;99.90
4964;DHT22;2497;47.410;9.740;2023-08-07T13:44:54;14.60;99.90
4964;DHT22;2497;47.410;9.740;2023-08-07T13:47:26;14.50;99.90
4964;DHT22;2497;47.410;9.740;2023-08-07T13:50:02;14.60;99.90
4964;DHT22;2497;47.410;9.740;2023-08-07T13:52:36;14.50;99.90
4964;DHT22;2497;47.410;9.740;2023-08-07T13:55:06;14.30;99.90
4964;DHT22;2497;47.410;9.740;2023-08-07T14:05:26;14.00;99.90
4964;DHT22;2497;47.410;9.740;2023-08-07T14:07:54;14.00;99.90
4964;DHT22;2497;47.410;9.740;2023-08-07T14:10:24;14.00;99.90
4964;DHT22;2497;47.410;9.740;2023-08-07T14:12:53;14.10;99.90
4964;DHT22;2497;47.410;9.740;2023-08-07T14:15:22;14.00;99.90
4964;DHT22;2497;47.410;9.740;2023-08-07T14:17:51;13.90;99.90
4964;DHT22;2497;47.410;9.740;2023-08-07T14:20:19;13.80;99.90
4964;DHT22;2497;47.410;9.740;2023-08-07T14:22:47;13.70;99.90
4964;DHT22;2497;47.410;9.740;2023-08-07T14:25:15;13.70;99.90
4964;DHT22;2497;47.410;9.740;2023-08-07T14:27:42;13.60;99.90
4964;DHT22;2497;47.410;9.740;2023-08-07T14:30:09;13.40;99.90
4964;DHT22;2497;47.410;9.740;2023-08-07T14:32:37;13.10;99.90
4964;DHT22;2497;47.410;9.740;2023-08-07T14:35:05;12.90;99.90
4964;DHT22;2497;47.410;9.740;2023-08-07T14:37:32;12.70;99.90
4964;DHT22;2497;47.410;9.740;2023-08-07T14:40:02;12.50;99.90
4964;DHT22;2497;47.410;9.740;2023-08-07T14:42:29;12.40;99.90
4964;DHT22;2497;47.410;9.740;2023-08-07T14:44:56;12.40;99.90
4964;DHT22;2497;47.410;9.740;2023-08-07T14:47:23;12.50;99.90
4964;DHT22;2497;47.410;9.740;2023-08-07T14:49:50;12.70;99.90
4964;DHT22;2497;47.410;9.740;2023-08-07T14:52:17;12.70;99.90
4964;DHT22;2497;47.410;9.740;2023-08-07T14:54:44;12.70;99.90
4964;DHT22;2497;47.410;9.740;2023-08-07T14:57:13;12.80;99.90
4964;DHT22;2497;47.410;9.740;2023-08-07T14:59:41;12.90;99.90
4964;DHT22;2497;47.410;9.740;2023-08-07T15:02:09;13.20;99.90
4964;DHT22;2497;47.410;9.740;2023-08-07T15:04:36;13.30;99.90
4964;DHT22;2497;47.410;9.740;2023-08-07T15:07:04;13.10;99.90
4964;DHT22;2497;47.410;9.740;2023-08-07T15:09:31;13.10;99.90
4964;DHT22;2497;47.410;9.740;2023-08-07T15:11:59;13.10;99.90
4964;DHT22;2497;47.410;9.740;2023-08-07T15:14:27;13.10;99.90
4964;DHT22;2497;47.410;9.740;2023-08-07T15:16:54;13.10;99.90
4964;DHT22;2497;47.410;9.740;2023-08-07T15:19:21;13.10;99.90
4964;DHT22;2497;47.410;9.740;2023-08-07T15:21:50;13.20;99.90
4964;DHT22;2497;47.410;9.740;2023-08-07T15:24:20;13.40;99.90
4964;DHT22;2497;47.410;9.740;2023-08-07T15:26:47;13.40;99.90
4964;DHT22;2497;47.410;9.740;2023-08-07T15:29:15;13.60;99.90
4964;DHT22;2497;47.410;9.740;2023-08-07T15:31:44;13.70;99.90
4964;DHT22;2497;47.410;9.740;2023-08-07T15:34:11;13.80;99.90
4964;DHT22;2497;47.410;9.740;2023-08-07T15:36:39;13.80;99.90
4964;DHT22;2497;47.410;9.740;2023-08-07T15:39:07;13.70;99.90
4964;DHT22;2497;47.410;9.740;2023-08-07T15:41:35;13.60;99.90
4964;DHT22;2497;47.410;9.740;2023-08-07T15:44:02;13.60;99.90
4964;DHT22;2497;47.410;9.740;2023-08-07T15:46:31;13.50;99.90
4964;DHT22;2497;47.410;9.740;2023-08-07T15:49:01;13.50;99.90
4964;DHT22;2497;47.410;9.740;2023-08-07T15:51:29;13.50;99.90
4964;DHT22;2497;47.410;9.740;2023-08-07T15:53:56;13.50;99.90
4964;DHT22;2497;47.410;9.740;2023-08-07T15:56:25;13.50;99.90
4964;DHT22;2497;47.410;9.740;2023-08-07T15:58:55;13.40;99.90
4964;DHT22;2497;47.410;9.740;2023-08-07T16:01:36;13.40;99.90
4964;DHT22;2497;47.410;9.740;2023-08-07T16:04:05;13.30;99.90
4964;DHT22;2497;47.410;9.740;2023-08-07T16:06:33;13.30;99.90
4964;DHT22;2497;47.410;9.740;2023-08-07T16:09:01;13.30;99.90
4964;DHT22;2497;47.410;9.740;2023-08-07T16:11:28;13.30;99.90
4964;DHT22;2497;47.410;9.740;2023-08-07T16:14:11;13.40;99.90
4964;DHT22;2497;47.410;9.740;2023-08-07T16:16:38;13.40;99.90
4964;DHT22;2497;47.410;9.740;2023-08-07T16:19:07;13.40;99.90
4964;DHT22;2497;47.410;9.740;2023-08-07T16:21:37;13.50;99.90
4964;DHT22;2497;47.410;9.740;2023-08-07T16:24:05;13.50;99.90
4964;DHT22;2497;47.410;9.740;2023-08-07T16:26:33;13.70;99.90
4964;DHT22;2497;47.410;9.740;2023-08-07T16:29:01;13.90;99.90
4964;DHT22;2497;47.410;9.740;2023-08-07T16:31:29;14.10;99.90
4964;DHT22;2497;47.410;9.740;2023-08-07T16:33:57;14.20;99.90
4964;DHT22;2497;47.410;9.740;2023-08-07T16:36:26;14.30;99.90
4964;DHT22;2497;47.410;9.740;2023-08-07T16:38:54;14.40;99.90
4964;DHT22;2497;47.410;9.740;2023-08-07T16:41:23;14.40;99.90
4964;DHT22;2497;47.410;9.740;2023-08-07T16:43:52;14.50;99.90